Time;durP1;ratioP1;P1;durP2;ratioP2;P2;SDS_P1;SDS_P2;PMS_P1;PMS_P2;Temp;Humidity;BMP_temperature;BMP_pressure;BME280_temperature;BME280_humidity;BME280_pressure;Samples;Min_cycle;Max_cycle;Signal;HPM_P1;HPM_P2
2020/12/09 00:01:19;;;;;;;108.92;71.57;;;;;;;3.08;83.01;99693.75;2896510;82;21530;-65
2020/12/09 00:05:23;;;;;;;103.05;67.53;;;;;;;3.08;83.12;99700.77;2896442;81;21154;-64
2020/12/09 00:09:26;;;;;;;96.40;64.92;;;;;;;3.09;83.00;99701.15;2898776;80;21155;-65
2020/12/09 00:13:29;;;;;;;108.80;67.32;;;;;;;3.06;83.06;99698.70;2899646;82;21594;-65
2020/12/09 00:17:32;;;;;;;101.80;63.87;;;;;;;3.01;83.08;99702.92;2899999;82;21148;-64
2020/12/09 00:21:36;;;;;;;104.15;67.37;;;;;;;2.96;83.21;99713.73;2900087;82;21120;-64
2020/12/09 00:25:39;;;;;;;110.80;64.60;;;;;;;2.94;83.25;99710.80;2900202;82;21520;-66
2020/12/09 00:29:42;;;;;;;115.15;73.10;;;;;;;2.91;83.34;99707.05;2899880;82;21693;-64
2020/12/09 00:33:46;;;;;;;115.12;70.28;;;;;;;2.90;83.49;99703.56;2899267;80;21117;-65
2020/12/09 00:37:50;;;;;;;101.12;66.97;;;;;;;2.90;83.64;99702.73;2897864;81;21185;-65
2020/12/09 00:41:54;;;;;;;105.25;71.57;;;;;;;2.91;83.85;99694.73;2896235;82;21604;-67
2020/12/09 00:45:57;;;;;;;107.17;68.22;;;;;;;2.92;83.97;99691.17;2896690;82;21170;-64
2020/12/09 00:54:15;;;;;;;122.72;76.70;;;;;;;3.01;84.19;99697.66;3001782;77;22878;-63
2020/12/09 00:58:18;;;;;;;110.28;68.28;;;;;;;2.98;84.40;99703.97;2955786;80;21602;-64
2020/12/09 01:02:21;;;;;;;114.75;69.30;;;;;;;3.01;84.44;99702.92;2955366;80;22250;-63
2020/12/09 01:06:24;;;;;;;106.67;63.68;;;;;;;3.04;84.47;99699.27;2955459;80;21694;-63
2020/12/09 01:10:27;;;;;;;118.60;71.97;;;;;;;3.04;84.49;99695.33;2955388;80;21141;-64
2020/12/09 01:14:31;;;;;;;103.53;65.03;;;;;;;3.07;84.58;99697.77;2955595;80;21141;-65
2020/12/09 01:18:33;;;;;;;118.00;70.20;;;;;;;3.04;84.57;99687.45;2955198;80;21093;-63
2020/12/09 01:22:38;;;;;;;102.00;64.58;;;;;;;3.03;84.77;99689.22;2955391;80;21603;-65
2020/12/09 01:26:40;;;;;;;109.65;68.35;;;;;;;3.07;84.95;99691.20;2955487;80;21200;-64
2020/12/09 01:30:43;;;;;;;113.28;68.70;;;;;;;3.12;84.82;99697.88;2925011;80;21606;-64
2020/12/09 01:34:48;;;;;;;111.50;65.97;;;;;;;3.17;84.76;99696.30;2930039;80;21164;-64
2020/12/09 01:38:52;;;;;;;115.22;66.33;;;;;;;3.18;84.49;99690.09;2904131;81;21121;-64
2020/12/09 01:42:56;;;;;;;112.22;64.07;;;;;;;3.14;84.44;99695.14;2904015;82;21575;-64
2020/12/09 01:47:04;;;;;;;105.55;65.78;;;;;;;3.10;84.39;99704.16;2904497;82;21148;-65
2020/12/09 01:51:07;;;;;;;106.05;60.28;;;;;;;3.09;84.53;99695.89;2903844;81;21626;-64
2020/12/09 01:55:10;;;;;;;111.95;70.03;;;;;;;3.10;84.69;99689.24;2904288;81;21117;-64
2020/12/09 01:59:13;;;;;;;109.37;64.45;;;;;;;3.17;84.67;99682.30;2904112;81;21125;-63
2020/12/09 02:03:17;;;;;;;101.20;66.30;;;;;;;3.15;84.41;99690.28;2903889;81;21149;-64
2020/12/09 02:07:22;;;;;;;116.17;67.47;;;;;;;3.21;84.50;99683.33;2903448;82;21141;-64
2020/12/09 02:11:25;;;;;;;105.10;67.20;;;;;;;3.19;84.32;99685.67;2902968;81;21559;-64
2020/12/09 02:15:28;;;;;;;101.50;59.75;;;;;;;3.12;84.25;99680.80;2903167;82;21551;-63
2020/12/09 02:19:31;;;;;;;105.58;64.05;;;;;;;3.08;84.35;99699.45;2903207;82;21539;-63
2020/12/09 02:23:34;;;;;;;102.92;62.70;;;;;;;3.10;84.45;99697.58;2903669;82;21149;-62
2020/12/09 02:27:37;;;;;;;103.38;65.62;;;;;;;3.08;84.17;99702.09;2903254;82;21137;-63
2020/12/09 02:31:40;;;;;;;104.35;60.85;;;;;;;3.03;84.25;99704.98;2902910;82;21595;-64
2020/12/09 02:35:44;;;;;;;108.83;68.17;;;;;;;3.00;84.32;99698.15;2902600;80;21611;-63
2020/12/09 02:39:46;;;;;;;112.40;64.77;;;;;;;3.00;84.52;99695.52;2900275;82;21125;-63
2020/12/09 02:43:50;;;;;;;113.45;66.72;;;;;;;3.03;84.46;99696.27;2900155;82;21165;-65
2020/12/09 02:47:53;;;;;;;105.55;66.10;;;;;;;3.08;84.42;99694.20;2900145;82;21583;-64
2020/12/09 02:51:57;;;;;;;111.52;62.73;;;;;;;3.09;84.04;99691.95;2900241;81;21121;-64
2020/12/09 02:56:00;;;;;;;115.03;65.30;;;;;;;3.03;84.22;99683.13;2900467;82;21539;-63
2020/12/09 03:00:05;;;;;;;102.12;63.80;;;;;;;2.95;84.12;99674.39;2903101;82;21543;-65
2020/12/09 03:04:09;;;;;;;105.67;64.40;;;;;;;2.90;84.20;99669.41;2903201;81;21141;-65
2020/12/09 03:08:12;;;;;;;118.67;68.47;;;;;;;2.85;84.21;99680.66;2903378;81;21168;-62
2020/12/09 03:12:15;;;;;;;101.20;62.43;;;;;;;2.85;84.31;99683.30;2903357;81;21160;-62
2020/12/09 03:16:18;;;;;;;107.90;65.25;;;;;;;2.88;84.13;99692.78;2903111;81;21149;-64
2020/12/09 03:20:23;;;;;;;103.80;68.17;;;;;;;2.87;83.96;99703.75;2903186;82;21772;-63
2020/12/09 03:24:26;;;;;;;97.42;61.48;;;;;;;2.92;84.06;99696.42;2903167;82;21593;-63
2020/12/09 03:28:29;;;;;;;109.12;64.95;;;;;;;2.90;83.95;99700.93;2886889;81;21121;-64
2020/12/09 03:32:32;;;;;;;108.72;63.68;;;;;;;2.90;83.88;99707.98;2903017;81;21177;-63
2020/12/09 03:36:36;;;;;;;99.77;65.70;;;;;;;2.93;83.90;99713.88;2903023;80;21117;-63
2020/12/09 03:40:39;;;;;;;102.85;60.10;;;;;;;2.88;83.81;99726.45;2902619;81;22232;-63
2020/12/09 03:44:43;;;;;;;100.47;56.58;;;;;;;2.85;84.03;99727.95;2902912;82;21591;-63
2020/12/09 03:48:46;;;;;;;116.08;66.40;;;;;;;2.82;84.15;99730.77;2903063;82;21184;-62
2020/12/09 03:52:48;;;;;;;113.97;67.37;;;;;;;2.82;84.26;99729.45;2902894;81;21141;-64
2020/12/09 03:56:52;;;;;;;110.63;64.92;;;;;;;2.85;84.14;99739.77;2901620;80;21584;-63
2020/12/09 04:00:55;;;;;;;106.85;67.10;;;;;;;2.82;84.23;99737.33;2900872;80;21157;-64
2020/12/09 04:04:58;;;;;;;113.55;65.55;;;;;;;2.84;84.25;99728.41;2902092;82;21576;-65
2020/12/09 04:09:01;;;;;;;113.97;67.47;;;;;;;2.80;84.21;99731.33;2900651;82;21165;-63
2020/12/09 04:13:04;;;;;;;107.78;68.37;;;;;;;2.81;84.20;99726.45;2902806;82;22218;-64
2020/12/09 04:17:12;;;;;;;113.05;65.50;;;;;;;2.82;84.29;99736.02;2903034;81;21133;-65
2020/12/09 04:21:21;;;;;;;110.45;68.30;;;;;;;2.81;84.21;99735.64;2903097;82;21145;-64
2020/12/09 04:25:28;;;;;;;110.40;65.05;;;;;;;2.78;84.42;99727.94;2902957;80;21157;-65
2020/12/09 04:29:37;;;;;;;112.12;68.97;;;;;;;2.79;84.40;99735.72;2902275;80;21144;-65
2020/12/09 04:33:52;;;;;;;114.28;61.42;;;;;;;2.76;84.46;99727.19;2899851;80;21088;-63
2020/12/09 04:37:55;;;;;;;130.57;74.12;;;;;;;2.70;84.44;99731.84;2900259;81;21136;-63
2020/12/09 04:41:58;;;;;;;105.65;63.23;;;;;;;2.69;84.58;99732.78;2899797;82;21574;-65
2020/12/09 04:46:01;;;;;;;121.55;69.50;;;;;;;2.64;84.65;99738.77;2899819;81;21163;-65
2020/12/09 04:50:09;;;;;;;113.10;64.60;;;;;;;2.57;84.78;99746.64;2899948;82;21184;-63
2020/12/09 04:54:15;;;;;;;124.40;70.05;;;;;;;2.56;85.01;99730.50;2903313;81;21179;-64
2020/12/09 04:58:43;;;;;;;116.05;65.35;;;;;;;2.63;85.19;99743.65;2905262;81;21148;-63
2020/12/09 05:02:53;;;;;;;114.10;70.03;;;;;;;2.64;84.92;99758.47;2954112;78;21126;-64
2020/12/09 05:06:56;;;;;;;111.62;62.73;;;;;;;2.64;84.87;99757.61;2923224;81;21634;-65
2020/12/09 05:11:04;;;;;;;113.80;65.00;;;;;;;2.62;85.14;99761.66;2920794;81;21160;-65
2020/12/09 05:15:11;;;;;;;110.55;58.98;;;;;;;2.67;85.25;99762.71;2874518;82;21164;-64
2020/12/09 05:19:15;;;;;;;97.15;54.73;;;;;;;2.66;85.10;99765.79;2918459;81;21988;-65
2020/12/09 05:23:21;;;;;;;108.50;59.35;;;;;;;2.63;85.03;99773.84;2908590;81;21131;-66
2020/12/09 05:27:24;;;;;;;104.32;61.85;;;;;;;2.63;85.36;99783.04;2916914;81;21603;-63
2020/12/09 05:31:26;;;;;;;87.70;51.10;;;;;;;2.63;85.43;99787.43;2923334;81;21149;-63
2020/12/09 05:35:29;;;;;;;88.20;50.08;;;;;;;2.61;85.43;99806.37;2900814;80;21190;-66
2020/12/09 05:39:33;;;;;;;101.35;56.95;;;;;;;2.50;85.77;99803.03;2893889;82;21141;-63
2020/12/09 05:43:45;;;;;;;98.25;53.28;;;;;;;2.52;85.95;99813.84;2896269;82;21153;-64
2020/12/09 05:47:48;;;;;;;90.62;52.90;;;;;;;2.52;86.06;99801.17;2896346;82;21595;-64
2020/12/09 05:52:15;;;;;;;95.67;58.15;;;;;;;2.54;86.18;99801.92;2896497;82;21148;-63
2020/12/09 05:56:21;;;;;;;97.95;54.77;;;;;;;2.57;86.29;99813.59;2896651;82;21149;-66
2020/12/09 06:00:25;;;;;;;99.20;59.08;;;;;;;2.64;86.35;99821.50;2896664;81;21610;-64
2020/12/09 06:04:52;;;;;;;102.00;56.18;;;;;;;2.69;86.30;99816.82;2896577;82;21145;-64
2020/12/09 06:08:58;;;;;;;101.92;53.45;;;;;;;2.65;86.40;99811.37;2886939;82;21149;-65
2020/12/09 06:13:02;;;;;;;92.92;51.55;;;;;;;2.65;86.41;99815.77;2896764;82;21173;-64
2020/12/09 06:17:05;;;;;;;97.82;54.65;;;;;;;2.61;86.73;99825.61;2896817;82;21177;-65
2020/12/09 06:21:08;;;;;;;95.30;50.10;;;;;;;2.56;86.93;99824.55;2896428;82;21146;-65
2020/12/09 06:25:11;;;;;;;84.07;48.08;;;;;;;2.55;87.12;99822.00;2896388;82;21615;-65
2020/12/09 06:29:22;;;;;;;108.92;58.68;;;;;;;2.53;87.24;99812.05;2896323;82;21153;-63
2020/12/09 06:33:36;;;;;;;85.17;46.88;;;;;;;2.60;87.26;99813.42;2896472;81;21631;-64
2020/12/09 06:37:39;;;;;;;94.60;45.63;;;;;;;2.63;87.12;99819.80;2896721;82;21175;-66
2020/12/09 06:41:59;;;;;;;75.80;46.23;;;;;;;2.61;87.19;99820.81;2896450;82;21149;-65
2020/12/09 06:46:03;;;;;;;86.10;48.35;;;;;;;2.55;87.11;99810.18;2769553;85;21668;-64
2020/12/09 06:50:10;;;;;;;78.95;52.03;;;;;;;2.56;87.10;99812.73;2772284;85;21600;-64
2020/12/09 06:54:15;;;;;;;87.70;50.03;;;;;;;2.57;87.16;99808.34;2794659;84;21193;-63
2020/12/09 06:58:25;;;;;;;88.92;49.38;;;;;;;2.55;87.12;99818.92;2821206;84;21185;-67
2020/12/09 07:02:30;;;;;;;91.05;46.68;;;;;;;2.54;87.25;99830.81;2837167;83;21177;-65
2020/12/09 07:06:33;;;;;;;85.70;53.42;;;;;;;2.56;87.37;99831.11;2820714;84;21536;-66
2020/12/09 07:10:36;;;;;;;114.57;66.25;;;;;;;2.58;87.35;99836.30;2791535;85;21214;-64
2020/12/09 07:14:49;;;;;;;87.37;56.85;;;;;;;2.61;87.33;99836.56;2821061;84;21165;-63
2020/12/09 07:18:53;;;;;;;84.77;50.33;;;;;;;2.65;87.52;99836.77;2791147;85;21201;-65
2020/12/09 07:22:56;;;;;;;88.65;49.70;;;;;;;2.69;87.38;99837.83;2820916;84;21177;-64
2020/12/09 07:26:59;;;;;;;66.45;42.67;;;;;;;2.70;87.30;99843.47;2815246;82;21151;-65
2020/12/09 07:31:10;;;;;;;85.03;43.85;;;;;;;2.67;87.31;99866.45;2896478;82;21619;-63
2020/12/09 07:35:14;;;;;;;81.17;42.48;;;;;;;2.70;87.40;99860.54;2897164;82;21215;-65
2020/12/09 07:39:34;;;;;;;83.82;47.62;;;;;;;2.69;87.47;99864.09;2896860;82;21141;-66
2020/12/09 07:43:37;;;;;;;89.65;46.28;;;;;;;2.68;87.51;99863.72;2896326;82;22201;-64
2020/12/09 07:47:42;;;;;;;205.98;117.47;;;;;;;2.72;87.54;99868.34;2889475;82;21173;-64
2020/12/09 07:51:47;;;;;;;241.60;146.87;;;;;;;2.80;87.56;99878.42;2896104;82;21158;-63
2020/12/09 07:55:51;;;;;;;144.10;87.12;;;;;;;2.87;87.55;99874.99;2896639;82;21145;-64
2020/12/09 07:59:56;;;;;;;152.85;89.20;;;;;;;2.87;87.34;99885.02;2896105;82;21762;-65
2020/12/09 08:03:58;;;;;;;127.85;80.95;;;;;;;2.82;87.29;99892.32;2896095;82;21611;-64
2020/12/09 08:08:03;;;;;;;107.12;64.45;;;;;;;2.85;87.46;99896.08;2896301;82;21632;-64
2020/12/09 08:12:06;;;;;;;78.02;46.05;;;;;;;2.85;87.20;99900.89;2896658;82;21176;-64
2020/12/09 08:16:12;;;;;;;80.67;45.73;;;;;;;2.85;87.21;99903.97;2896554;82;21172;-64
2020/12/09 08:20:17;;;;;;;82.57;43.30;;;;;;;2.88;87.24;99900.33;2896218;82;21603;-64
2020/12/09 08:24:21;;;;;;;72.97;43.13;;;;;;;2.95;86.99;99900.36;2891260;82;21159;-65
2020/12/09 08:28:26;;;;;;;65.25;39.27;;;;;;;2.92;86.86;99887.39;2835690;82;21615;-65
2020/12/09 08:32:29;;;;;;;56.25;39.50;;;;;;;2.91;86.79;99894.42;2857948;82;21594;-64
2020/12/09 08:36:37;;;;;;;108.63;67.37;;;;;;;2.94;86.78;99906.55;2874623;81;21592;-66
2020/12/09 08:40:40;;;;;;;98.67;55.28;;;;;;;2.99;86.68;99900.11;2874668;82;21140;-64
2020/12/09 08:44:43;;;;;;;92.53;54.45;;;;;;;3.01;86.63;99913.14;2874884;82;21144;-64
2020/12/09 08:48:46;;;;;;;97.57;53.92;;;;;;;3.05;86.75;99915.14;2874756;82;21179;-63
2020/12/09 08:52:50;;;;;;;86.02;52.33;;;;;;;3.15;86.94;99909.75;2874510;82;21426;-66
2020/12/09 08:56:53;;;;;;;81.87;48.13;;;;;;;3.23;86.59;99913.23;2874786;82;21187;-63
2020/12/09 09:00:56;;;;;;;85.17;47.45;;;;;;;3.26;86.30;99911.77;2869278;82;21629;-64
2020/12/09 09:04:59;;;;;;;89.83;52.35;;;;;;;3.24;86.12;99914.47;2856308;83;21170;-63
2020/12/09 09:09:01;;;;;;;82.62;45.60;;;;;;;3.28;86.42;99912.03;2856390;83;21481;-64
2020/12/09 09:13:05;;;;;;;91.15;52.78;;;;;;;3.38;86.06;99916.78;2854189;83;21158;-63
2020/12/09 09:17:08;;;;;;;110.40;66.92;;;;;;;3.39;85.70;99910.59;2856565;83;21175;-63
2020/12/09 09:21:10;;;;;;;89.87;58.83;;;;;;;3.40;85.48;99901.76;2856529;83;21174;-63
2020/12/09 09:25:14;;;;;;;97.12;52.23;;;;;;;3.40;85.33;99895.19;2857055;83;21111;-59
2020/12/09 09:29:18;;;;;;;84.10;50.28;;;;;;;3.34;85.51;99907.35;2857006;83;21163;-63
2020/12/09 09:33:21;;;;;;;97.95;54.05;;;;;;;3.39;85.57;99902.22;2856682;83;21147;-62
2020/12/09 09:37:24;;;;;;;92.15;51.77;;;;;;;3.38;85.52;99905.78;2856498;83;21163;-62
2020/12/09 09:41:27;;;;;;;103.87;56.63;;;;;;;3.36;85.57;99910.77;2856420;83;21751;-62
2020/12/09 09:45:30;;;;;;;94.67;54.85;;;;;;;3.41;85.53;99915.28;2856494;83;21155;-61
2020/12/09 09:49:33;;;;;;;78.87;44.38;;;;;;;3.45;85.44;99916.80;2851033;83;21157;-62
2020/12/09 09:53:36;;;;;;;86.25;49.73;;;;;;;3.49;85.39;99906.47;2798798;84;21365;-60
2020/12/09 09:57:41;;;;;;;89.15;50.38;;;;;;;3.52;85.42;99910.23;2800858;83;21634;-60
2020/12/09 10:01:44;;;;;;;87.70;47.45;;;;;;;3.54;85.44;99900.49;2773896;83;21706;-60
2020/12/09 10:05:48;;;;;;;89.47;54.93;;;;;;;3.56;85.48;99899.94;2824075;83;21180;-63
2020/12/09 10:09:53;;;;;;;95.55;55.88;;;;;;;3.58;85.44;99902.45;2787024;84;21606;-62
2020/12/09 10:13:55;;;;;;;86.32;50.20;;;;;;;3.56;85.55;99903.88;2789958;83;21590;-61
2020/12/09 10:17:58;;;;;;;81.65;49.70;;;;;;;3.62;85.65;99907.08;2808784;84;21139;-60
2020/12/09 10:22:02;;;;;;;85.77;47.95;;;;;;;3.68;85.71;99906.70;2841310;83;21610;-61
2020/12/09 10:26:05;;;;;;;89.87;49.25;;;;;;;3.74;85.39;99908.13;2844238;83;21131;-61
2020/12/09 10:30:08;;;;;;;87.02;49.83;;;;;;;3.81;85.45;99896.29;2824661;83;21135;-61
2020/12/09 10:34:15;;;;;;;81.37;47.55;;;;;;;3.88;85.33;99895.45;2839123;83;21612;-62
2020/12/09 10:38:18;;;;;;;75.72;45.05;;;;;;;3.91;84.90;99890.00;2811245;84;21175;-63
2020/12/09 10:42:22;;;;;;;127.17;66.65;;;;;;;3.89;84.56;99895.83;2817181;84;21740;-60
2020/12/09 10:46:34;;;;;;;118.75;61.65;;;;;;;3.86;84.63;99892.94;2812070;83;21144;-61
2020/12/09 10:50:38;;;;;;;103.40;57.60;;;;;;;3.88;84.58;99889.73;2820511;84;21162;-62
2020/12/09 10:54:42;;;;;;;92.75;56.10;;;;;;;3.83;84.33;99894.41;2820791;84;21699;-60
2020/12/09 10:58:47;;;;;;;115.42;64.58;;;;;;;3.88;84.50;99879.22;2855358;83;21135;-62
2020/12/09 11:02:50;;;;;;;127.72;68.70;;;;;;;3.79;84.82;99874.03;2885542;81;21129;-62
2020/12/09 11:06:52;;;;;;;128.90;67.95;;;;;;;3.84;85.25;99875.91;2908565;81;21109;-61
2020/12/09 11:10:57;;;;;;;136.40;69.20;;;;;;;3.88;85.15;99873.09;2908099;81;21141;-62
2020/12/09 11:15:00;;;;;;;120.53;61.95;;;;;;;3.93;85.12;99873.64;2888820;81;21184;-60
2020/12/09 11:19:05;;;;;;;123.28;66.65;;;;;;;3.94;85.07;99861.73;2874884;82;21144;-60
2020/12/09 11:23:10;;;;;;;109.85;63.08;;;;;;;4.03;85.25;99860.77;2874267;82;21111;-61
2020/12/09 11:27:12;;;;;;;106.37;59.50;;;;;;;4.07;85.09;99864.94;2868694;82;21160;-60
2020/12/09 11:31:21;;;;;;;109.25;57.45;;;;;;;3.99;84.55;99865.40;2874756;81;21546;-60
2020/12/09 11:35:24;;;;;;;82.20;48.68;;;;;;;3.90;84.71;99856.28;2875222;81;21178;-60
2020/12/09 11:39:28;;;;;;;96.63;52.23;;;;;;;3.85;84.91;99855.23;2873634;82;21096;-60
2020/12/09 11:43:32;;;;;;;85.32;48.65;;;;;;;3.79;85.10;99858.25;2874878;82;21168;-61
2020/12/09 11:47:37;;;;;;;81.15;49.15;;;;;;;3.82;85.40;99862.00;2874741;82;21152;-60
2020/12/09 11:51:40;;;;;;;87.05;48.00;;;;;;;3.78;85.29;99876.29;2873629;82;21158;-62
2020/12/09 11:55:43;;;;;;;86.12;51.25;;;;;;;3.80;85.30;99866.52;2873590;82;22271;-61
2020/12/09 11:59:45;;;;;;;94.87;54.33;;;;;;;3.83;85.49;99868.95;2873278;82;21620;-60
2020/12/09 12:03:49;;;;;;;84.28;51.75;;;;;;;3.88;85.42;99873.09;2860064;82;21189;-61
2020/12/09 12:07:54;;;;;;;96.82;54.50;;;;;;;3.94;85.42;99862.21;2855355;83;21569;-62
2020/12/09 12:11:57;;;;;;;87.75;48.40;;;;;;;3.97;85.54;99858.07;2851935;83;21164;-62
2020/12/09 12:16:01;;;;;;;95.40;54.55;;;;;;;3.96;85.24;99866.91;2779888;84;21199;-61
2020/12/09 12:20:05;;;;;;;87.72;52.67;;;;;;;3.89;85.07;99856.36;2846609;82;21134;-60
2020/12/09 12:24:08;;;;;;;91.42;46.33;;;;;;;3.90;85.28;99863.31;2859254;82;21165;-61
2020/12/09 12:28:11;;;;;;;87.55;54.90;;;;;;;3.83;85.49;99853.17;2864079;82;21124;-61
2020/12/09 12:32:18;;;;;;;94.45;55.70;;;;;;;3.86;85.66;99849.52;2851853;82;21175;-61
2020/12/09 12:36:29;;;;;;;78.70;47.15;;;;;;;3.86;85.79;99849.52;2789933;83;21214;-61
2020/12/09 12:40:32;;;;;;;82.70;50.75;;;;;;;3.88;85.81;99850.72;2803954;84;21152;-61
2020/12/09 12:44:35;;;;;;;80.85;48.17;;;;;;;3.96;85.61;99835.33;2748300;85;21151;-62
2020/12/09 12:48:39;;;;;;;84.60;45.28;;;;;;;3.96;85.29;99846.69;2759806;85;21182;-62
2020/12/09 12:52:42;;;;;;;72.90;47.93;;;;;;;3.90;85.18;99837.86;2789642;84;21200;-62
2020/12/09 12:56:46;;;;;;;76.75;48.50;;;;;;;3.89;85.32;99837.94;2804034;84;21716;-61
2020/12/09 13:00:48;;;;;;;82.45;39.38;;;;;;;3.89;85.21;99840.57;2812669;83;21637;-63
2020/12/09 13:04:51;;;;;;;75.35;44.85;;;;;;;3.92;85.15;99856.17;2824727;84;21164;-61
2020/12/09 13:08:54;;;;;;;82.20;48.85;;;;;;;3.93;85.08;99857.41;2825272;83;21119;-62
2020/12/09 13:12:57;;;;;;;78.22;46.23;;;;;;;3.91;85.01;99858.42;2824797;83;22280;-66
2020/12/09 13:17:00;;;;;;;73.83;45.03;;;;;;;3.81;85.37;99861.63;2825214;83;21131;-67
2020/12/09 13:21:07;;;;;;;73.67;49.38;;;;;;;3.85;85.36;99852.61;2825123;83;21176;-66
2020/12/09 13:25:10;;;;;;;74.90;45.83;;;;;;;3.86;85.37;99862.19;2824875;84;21912;-68
2020/12/09 13:29:13;;;;;;;92.60;58.28;;;;;;;3.93;85.25;99863.98;2825329;84;21155;-68
2020/12/09 13:33:16;;;;;;;88.87;55.65;;;;;;;4.05;85.22;99867.65;2823315;84;21216;-67
2020/12/09 13:37:19;;;;;;;107.05;60.85;;;;;;;4.10;84.90;99862.94;2805490;84;21164;-67
2020/12/09 13:41:22;;;;;;;84.52;47.95;;;;;;;4.16;84.46;99860.89;2805214;84;21748;-67
2020/12/09 13:45:26;;;;;;;81.12;45.75;;;;;;;4.11;83.85;99861.16;2804800;84;21603;-65
2020/12/09 13:49:29;;;;;;;120.92;62.90;;;;;;;4.07;83.93;99855.23;2804993;84;21594;-66
2020/12/09 13:53:32;;;;;;;102.25;50.73;;;;;;;4.00;83.77;99860.02;2804987;84;21132;-68
2020/12/09 13:57:37;;;;;;;99.45;55.20;;;;;;;3.98;84.07;99850.55;2801387;84;21157;-67
2020/12/09 14:01:40;;;;;;;90.10;56.85;;;;;;;3.94;83.64;99853.83;2805111;84;21583;-70
2020/12/09 14:05:43;;;;;;;63.83;38.92;;;;;;;3.88;83.74;99855.53;2805345;84;21164;-70
2020/12/09 14:09:46;;;;;;;61.23;40.55;;;;;;;3.89;83.85;99857.22;2805380;84;21332;-68
2020/12/09 14:13:49;;;;;;;65.95;39.70;;;;;;;3.91;83.92;99857.11;2805301;84;21164;-70
2020/12/09 14:17:52;;;;;;;74.70;43.98;;;;;;;3.90;83.91;99856.73;2805493;84;21575;-70
2020/12/09 14:21:56;;;;;;;75.60;45.17;;;;;;;3.95;84.07;99858.64;2818042;83;21163;-70
2020/12/09 14:25:59;;;;;;;67.78;41.63;;;;;;;3.99;84.04;99853.56;2829315;83;21199;-71
2020/12/09 14:30:07;;;;;;;66.92;42.23;;;;;;;4.01;84.18;99851.67;2798732;84;21173;-72
2020/12/09 14:34:10;;;;;;;75.45;45.73;;;;;;;4.01;83.82;99854.30;2795683;84;21607;-73
2020/12/09 14:38:13;;;;;;;68.10;42.05;;;;;;;4.01;83.85;99854.30;2789582;85;21434;-73
2020/12/09 14:42:18;;;;;;;76.00;50.48;;;;;;;3.98;83.87;99861.91;2763563;86;21209;-68
2020/12/09 14:46:20;;;;;;;76.65;45.43;;;;;;;3.95;84.02;99858.64;2763750;85;21623;-70
2020/12/09 14:50:25;;;;;;;84.62;49.25;;;;;;;3.95;84.10;99857.33;2763742;85;21161;-75
2020/12/09 14:54:28;;;;;;;81.50;48.40;;;;;;;3.95;84.27;99862.59;2763793;86;21186;-70
2020/12/09 14:58:31;;;;;;;84.00;54.67;;;;;;;3.99;84.16;99865.40;2763418;86;21177;-70
2020/12/09 15:02:40;;;;;;;66.05;43.75;;;;;;;3.95;84.14;99870.48;2742269;85;21198;-69
2020/12/09 15:06:40;;;;;;;70.78;43.23;;;;;;;3.85;84.06;99872.34;2738563;86;21174;-69
2020/12/09 15:10:43;;;;;;;67.47;40.80;;;;;;;3.81;84.30;99866.89;2739170;86;21174;-70
2020/12/09 15:14:47;;;;;;;80.60;49.20;;;;;;;3.79;84.43;99870.55;2738873;86;21615;-69
2020/12/09 15:18:51;;;;;;;66.25;40.83;;;;;;;3.79;84.51;99879.75;2739283;86;21584;-70
2020/12/09 15:22:55;;;;;;;77.53;48.10;;;;;;;3.77;84.48;99886.44;2739262;86;21612;-71
2020/12/09 15:26:58;;;;;;;118.17;70.28;;;;;;;3.74;84.44;99876.11;2738968;86;21186;-72
2020/12/09 15:31:01;;;;;;;108.57;56.02;;;;;;;3.74;84.44;99877.88;2739211;86;21174;-72
2020/12/09 15:35:04;;;;;;;76.17;44.98;;;;;;;3.69;84.53;99868.94;2732486;86;21211;-72
2020/12/09 15:39:08;;;;;;;70.10;41.30;;;;;;;3.70;84.53;99885.09;2722159;87;21147;-73
2020/12/09 15:43:12;;;;;;;80.92;45.43;;;;;;;3.66;84.51;99890.17;2722676;86;21180;-71
2020/12/09 15:47:15;;;;;;;69.97;43.55;;;;;;;3.65;84.41;99896.37;2722205;86;21159;-72
2020/12/09 15:51:19;;;;;;;74.17;46.83;;;;;;;3.69;84.36;99891.30;2722272;86;21170;-73
2020/12/09 15:55:22;;;;;;;65.75;39.75;;;;;;;3.70;84.33;99894.30;2727946;86;21131;-71
2020/12/09 15:59:24;;;;;;;130.07;64.58;;;;;;;3.67;84.41;99897.98;2722604;86;22270;-68
2020/12/09 16:03:27;;;;;;;100.47;58.02;;;;;;;3.65;84.31;99898.55;2730423;86;21128;-68
2020/12/09 16:07:30;;;;;;;100.05;58.15;;;;;;;3.65;84.30;99902.48;2723957;86;22247;-67
2020/12/09 16:11:33;;;;;;;70.32;42.80;;;;;;;3.70;84.35;99899.56;2733175;86;21178;-71
2020/12/09 16:15:37;;;;;;;70.03;43.78;;;;;;;3.74;84.42;99902.41;2732139;86;21178;-70
2020/12/09 16:19:40;;;;;;;80.00;51.18;;;;;;;3.73;84.25;99899.38;2701921;86;21164;-70
2020/12/09 16:23:44;;;;;;;68.15;49.93;;;;;;;3.73;84.12;99901.17;2739212;86;21160;-69
2020/12/09 16:27:47;;;;;;;67.97;46.90;;;;;;;3.72;84.11;99889.79;2733890;86;21613;-68
2020/12/09 16:31:52;;;;;;;88.30;49.58;;;;;;;3.65;83.95;99891.11;2734974;86;21722;-67
2020/12/09 16:35:56;;;;;;;66.97;44.70;;;;;;;3.48;84.77;99891.63;2744052;85;21616;-68
2020/12/09 16:39:59;;;;;;;73.83;45.58;;;;;;;3.40;85.01;99900.45;2746476;86;21158;-67
2020/12/09 16:44:02;;;;;;;69.07;43.60;;;;;;;3.44;85.29;99894.06;2746573;86;21131;-68
2020/12/09 16:48:05;;;;;;;58.80;35.40;;;;;;;3.51;85.20;99887.50;2746359;86;21627;-68
2020/12/09 16:52:09;;;;;;;69.37;41.53;;;;;;;3.47;84.95;99895.68;2746316;86;21612;-68
2020/12/09 16:56:16;;;;;;;74.12;42.78;;;;;;;3.41;85.45;99908.71;2746375;86;21220;-68
2020/12/09 17:00:19;;;;;;;53.38;27.20;;;;;;;3.32;85.76;99915.34;2746565;86;21624;-68
2020/12/09 17:04:24;;;;;;;76.42;35.52;;;;;;;3.15;86.22;99920.27;2746528;86;21174;-68
2020/12/09 17:08:27;;;;;;;72.00;40.33;;;;;;;3.11;86.33;99931.86;2746324;86;22296;-68
2020/12/09 17:12:30;;;;;;;95.05;44.77;;;;;;;3.13;86.51;99929.99;2746450;86;21721;-68
2020/12/09 17:16:33;;;;;;;70.32;37.78;;;;;;;3.11;86.44;99934.49;2746318;86;21600;-68
2020/12/09 17:20:38;;;;;;;88.75;53.50;;;;;;;3.02;86.96;99936.34;2747646;86;21182;-68
2020/12/09 17:24:41;;;;;;;90.87;49.13;;;;;;;3.08;86.68;99931.59;2746975;86;21661;-68
2020/12/09 17:28:45;;;;;;;264.48;130.80;;;;;;;3.12;86.79;99930.92;2746238;86;21205;-68
2020/12/09 17:32:50;;;;;;;199.75;98.03;;;;;;;3.17;86.50;99921.02;2746580;86;21157;-67
2020/12/09 17:36:57;;;;;;;162.27;81.57;;;;;;;3.24;86.39;99910.53;2750314;86;21173;-68
2020/12/09 17:41:02;;;;;;;109.25;62.48;;;;;;;3.31;86.05;99902.27;2825271;84;21174;-68
2020/12/09 17:45:06;;;;;;;74.65;46.92;;;;;;;3.31;85.90;99904.91;2825536;83;21182;-67
2020/12/09 17:49:08;;;;;;;70.95;44.15;;;;;;;3.37;85.56;99913.29;2825170;84;21632;-67
2020/12/09 17:53:12;;;;;;;68.17;40.78;;;;;;;3.41;85.33;99905.59;2850244;83;21596;-67
2020/12/09 17:57:15;;;;;;;71.97;43.80;;;;;;;3.39;85.08;99913.22;2850513;83;21209;-67
2020/12/09 18:01:19;;;;;;;68.62;43.75;;;;;;;3.39;85.04;99911.91;2849940;83;21137;-66
2020/12/09 18:05:22;;;;;;;67.47;37.45;;;;;;;3.38;85.34;99918.09;2851278;82;21645;-64
2020/12/09 18:09:25;;;;;;;66.15;37.85;;;;;;;3.35;85.48;99913.02;2854310;83;21165;-65
2020/12/09 18:13:32;;;;;;;67.25;43.23;;;;;;;3.37;85.29;99916.41;2844930;83;21186;-66
2020/12/09 18:17:39;;;;;;;66.37;37.73;;;;;;;3.37;85.19;99920.34;2822649;82;21193;-65
2020/12/09 18:21:43;;;;;;;73.52;42.73;;;;;;;3.37;85.21;99922.98;2846547;83;21169;-66
2020/12/09 18:25:46;;;;;;;72.92;42.50;;;;;;;3.40;85.09;99917.05;2843770;83;21559;-65
2020/12/09 18:29:49;;;;;;;76.07;45.52;;;;;;;3.41;84.96;99917.91;2850826;82;21189;-65
2020/12/09 18:33:54;;;;;;;97.35;60.83;;;;;;;3.40;85.04;99913.59;2852598;83;21177;-64
2020/12/09 18:38:00;;;;;;;70.75;40.50;;;;;;;3.48;85.00;99911.34;2851825;81;21181;-64
2020/12/09 18:42:05;;;;;;;84.03;46.35;;;;;;;3.48;84.74;99916.61;2853839;82;21129;-63
2020/12/09 18:46:09;;;;;;;94.72;50.85;;;;;;;3.40;84.49;99903.91;2852387;83;21169;-65
2020/12/09 18:50:12;;;;;;;81.10;52.38;;;;;;;3.23;84.82;99919.34;2852124;83;21718;-64
2020/12/09 18:54:15;;;;;;;102.87;48.45;;;;;;;3.24;85.07;99924.98;2886884;82;21153;-64